createdAt,value
2024-03-09T00:00:24.442Z,72.60
2024-03-09T00:02:57.130Z,72.38
2024-03-09T00:05:25.690Z,72.52
2024-03-09T00:07:56.056Z,73.14
2024-03-09T00:10:29.638Z,73.84
2024-03-09T00:12:56.584Z,73.03
2024-03-09T00:15:26.877Z,73.40
2024-03-09T00:17:54.959Z,72.87
2024-03-09T00:20:26.331Z,73.49
2024-03-09T00:22:54.132Z,73.06
2024-03-09T00:25:24.541Z,74.52
2024-03-09T00:27:53.259Z,74.35
2024-03-09T00:30:22.320Z,74.19
2024-03-09T00:32:50.025Z,74.86
2024-03-09T00:35:16.867Z,74.88
2024-03-09T00:37:43.352Z,74.87
2024-03-09T00:40:10.867Z,75.24
2024-03-09T00:42:38.335Z,74.88
2024-03-09T00:45:05.650Z,75.43
2024-03-09T00:47:33.412Z,75.57
2024-03-09T00:50:00.340Z,75.69
2024-03-09T00:52:29.512Z,75.61
2024-03-09T00:54:56.632Z,76.31
2024-03-09T00:57:23.525Z,75.81
2024-03-09T00:59:53.505Z,76.16
2024-03-09T01:02:20.340Z,76.66
2024-03-09T01:04:47.355Z,76.15
2024-03-09T01:07:16.745Z,76.51
2024-03-09T01:09:44.941Z,77.05
2024-03-09T01:12:11.376Z,76.86
2024-03-09T01:14:37.852Z,76.76
2024-03-09T01:17:07.113Z,76.94
2024-03-09T01:19:36.853Z,77.06
2024-03-09T01:22:06.836Z,78.64
2024-03-09T01:24:33.755Z,77.87
2024-03-09T01:27:02.645Z,78.75
2024-03-09T01:29:29.069Z,78.00
2024-03-09T01:31:55.630Z,78.49
2024-03-09T01:34:24.613Z,79.08
2024-03-09T01:36:51.022Z,79.29
2024-03-09T01:39:18.306Z,79.41
2024-03-09T01:41:45.654Z,79.29
2024-03-09T01:44:12.102Z,79.42
2024-03-09T01:46:39.099Z,79.93
2024-03-09T01:49:06.932Z,79.46
2024-03-09T01:51:35.715Z,80.15
2024-03-09T01:54:11.274Z,80.91
2024-03-09T01:56:41.797Z,80.05
2024-03-09T01:59:09.207Z,81.11
2024-03-09T02:01:36.661Z,80.29
2024-03-09T02:04:05.846Z,80.05
2024-03-09T02:06:34.013Z,81.21
2024-03-09T02:09:07.719Z,80.49
2024-03-09T02:11:39.587Z,81.75
2024-03-09T02:14:06.399Z,80.71
2024-03-09T02:16:33.201Z,81.65
2024-03-09T02:19:01.558Z,82.22
2024-03-09T02:21:29.246Z,80.80
2024-03-09T02:24:06.482Z,81.37
2024-03-09T02:26:37.442Z,81.59
2024-03-09T02:29:05.318Z,81.91
2024-03-09T02:31:32.148Z,82.05
2024-03-09T02:33:58.682Z,81.67
2024-03-09T02:36:32.236Z,82.02
2024-03-09T02:38:59.301Z,82.51
2024-03-09T02:41:26.941Z,83.07
2024-03-09T02:43:54.855Z,82.10
2024-03-09T02:46:27.863Z,82.55
2024-03-09T02:48:55.165Z,82.57
2024-03-09T02:51:26.656Z,82.56
2024-03-09T02:53:53.433Z,82.57
2024-03-09T02:56:21.074Z,82.85
2024-03-09T02:58:49.273Z,83.04
2024-03-09T03:01:19.542Z,83.00
2024-03-09T03:03:52.206Z,83.23
2024-03-09T03:06:20.802Z,83.81
2024-03-09T03:08:49.983Z,82.91
2024-03-09T03:11:17.776Z,83.39
2024-03-09T03:13:46.411Z,84.69
2024-03-09T03:16:27.419Z,83.42
2024-03-09T03:18:57.236Z,84.31
2024-03-09T03:21:25.101Z,84.56
2024-03-09T03:23:52.583Z,83.57
2024-03-09T03:26:20.824Z,84.05
2024-03-09T03:28:49.323Z,84.53
2024-03-09T03:31:22.187Z,83.94
2024-03-09T03:33:51.925Z,84.00
2024-03-09T03:36:23.093Z,83.95
2024-03-09T03:38:50.787Z,84.02
2024-03-09T03:41:19.804Z,84.55
2024-03-09T03:43:46.557Z,84.82
2024-03-09T03:46:15.141Z,83.95
2024-03-09T03:48:46.331Z,85.18
2024-03-09T03:51:16.995Z,85.00
2024-03-09T03:53:45.323Z,84.65
2024-03-09T03:56:13.360Z,85.07
2024-03-09T03:58:40.879Z,85.28
2024-03-09T04:01:07.654Z,84.81
2024-03-09T04:03:34.887Z,85.33
2024-03-09T04:06:03.394Z,84.64
2024-03-09T04:08:30.113Z,84.72
2024-03-09T04:10:57.443Z,85.58
2024-03-09T04:13:25.146Z,84.87
2024-03-09T04:15:53.583Z,85.45
2024-03-09T04:18:22.756Z,85.45
2024-03-09T04:20:49.647Z,85.42
2024-03-09T04:23:19.139Z,85.58
2024-03-09T04:25:51.725Z,85.66
2024-03-09T04:28:22.631Z,86.16
2024-03-09T04:30:55.533Z,85.23
2024-03-09T04:33:25.367Z,86.66
2024-03-09T04:35:53.842Z,86.36
2024-03-09T04:38:22.680Z,85.55
2024-03-09T04:40:52.510Z,87.08
2024-03-09T04:43:19.996Z,85.96
2024-03-09T04:45:46.804Z,85.77
2024-03-09T04:48:14.786Z,87.49
2024-03-09T04:50:47.106Z,86.22
2024-03-09T04:53:13.627Z,86.23
2024-03-09T04:55:45.126Z,86.82
2024-03-09T04:58:19.116Z,86.59
2024-03-09T05:00:46.324Z,87.15
2024-03-09T05:03:18.823Z,87.44
2024-03-09T05:05:45.862Z,87.53
2024-03-09T05:08:12.936Z,86.63
2024-03-09T05:10:40.043Z,86.41
2024-03-09T05:13:08.046Z,87.12
2024-03-09T05:15:35.158Z,87.18
2024-03-09T05:18:11.275Z,87.89
2024-03-09T05:20:38.440Z,86.81
2024-03-09T05:23:08.736Z,87.53
2024-03-09T05:25:38.035Z,87.61
2024-03-09T05:28:04.878Z,87.46
2024-03-09T05:30:31.644Z,88.41
2024-03-09T05:33:07.861Z,88.01
2024-03-09T05:35:35.380Z,87.34
2024-03-09T05:38:06.095Z,88.26
2024-03-09T05:40:36.188Z,87.01
2024-03-09T05:43:07.975Z,88.46
2024-03-09T05:45:36.845Z,86.82
2024-03-09T05:48:03.715Z,86.93
2024-03-09T05:50:31.259Z,87.16
2024-03-09T05:53:02.035Z,88.06
2024-03-09T05:55:29.531Z,86.77
2024-03-09T05:57:57.366Z,87.28
2024-03-09T06:00:30.122Z,86.93
2024-03-09T06:02:59.267Z,87.28
2024-03-09T06:05:32.605Z,87.77
2024-03-09T06:08:00.150Z,86.92
2024-03-09T06:10:27.111Z,87.12
2024-03-09T06:12:54.322Z,87.91
2024-03-09T06:15:23.535Z,87.22
2024-03-09T06:17:53.733Z,86.49
2024-03-09T06:20:20.593Z,87.54
2024-03-09T06:22:47.984Z,86.90
2024-03-09T06:25:25.781Z,86.30
2024-03-09T06:27:56.984Z,87.31
2024-03-09T06:30:29.165Z,86.54
2024-03-09T06:33:02.454Z,86.47
2024-03-09T06:35:30.724Z,86.77
2024-03-09T06:38:14.628Z,86.37
2024-03-09T06:40:47.247Z,86.34
2024-03-09T06:43:14.605Z,86.62
2024-03-09T06:45:43.046Z,86.47
2024-03-09T06:48:09.728Z,86.19
2024-03-09T06:50:45.126Z,85.20
2024-03-09T06:53:11.778Z,85.98
2024-03-09T06:55:54.528Z,85.37
2024-03-09T06:58:21.514Z,86.10
2024-03-09T07:00:51.013Z,84.76
2024-03-09T07:03:23.212Z,84.51
2024-03-09T07:05:52.075Z,84.78
2024-03-09T07:08:22.495Z,84.34
2024-03-09T07:10:49.578Z,84.25
2024-03-09T07:13:19.871Z,84.47
2024-03-09T07:15:49.174Z,84.38
2024-03-09T07:18:22.005Z,84.71
2024-03-09T07:20:53.282Z,84.42
2024-03-09T07:23:25.665Z,84.18
2024-03-09T07:25:54.481Z,83.54
2024-03-09T07:28:26.985Z,83.79
2024-03-09T07:30:53.592Z,84.34
2024-03-09T07:33:29.330Z,83.21
2024-03-09T07:35:58.007Z,83.06
2024-03-09T07:38:24.739Z,81.95
2024-03-09T07:41:13.831Z,82.40
2024-03-09T07:43:43.522Z,81.43
2024-03-09T07:46:10.167Z,81.06
2024-03-09T07:48:38.762Z,80.39
2024-03-09T07:51:05.371Z,80.12
2024-03-09T07:53:33.664Z,80.34
2024-03-09T07:56:00.215Z,80.24
2024-03-09T07:58:27.825Z,80.22
2024-03-09T08:00:56.888Z,80.29
2024-03-09T08:03:25.682Z,80.83
2024-03-09T08:05:52.417Z,80.52
2024-03-09T08:08:19.211Z,80.97
2024-03-09T08:10:53.243Z,81.06
2024-03-09T08:13:26.210Z,80.59
2024-03-09T08:15:56.311Z,80.38
2024-03-09T08:18:23.607Z,80.07
2024-03-09T08:20:53.238Z,79.92
2024-03-09T08:23:19.990Z,79.99
2024-03-09T08:25:56.517Z,79.81
2024-03-09T08:28:23.313Z,77.62
2024-03-09T08:30:49.823Z,77.41
2024-03-09T08:33:16.459Z,75.99
2024-03-09T08:35:46.182Z,76.58
2024-03-09T08:38:14.640Z,77.57
2024-03-09T08:40:41.626Z,76.80
2024-03-09T08:43:08.418Z,77.01
2024-03-09T08:45:37.101Z,75.90
2024-03-09T08:48:05.144Z,76.79
2024-03-09T08:50:31.685Z,76.50
2024-03-09T08:53:00.642Z,76.42
2024-03-09T08:55:27.396Z,76.47
2024-03-09T08:57:54.062Z,76.62
2024-03-09T09:00:21.943Z,76.48
2024-03-09T09:02:49.563Z,75.91
2024-03-09T09:05:20.920Z,74.65
2024-03-09T09:07:48.652Z,74.66
2024-03-09T09:10:16.630Z,75.58
2024-03-09T09:12:56.293Z,75.35
2024-03-09T09:15:24.340Z,75.20
2024-03-09T09:17:50.945Z,75.50
2024-03-09T09:20:21.121Z,74.60
2024-03-09T09:22:48.770Z,73.05
2024-03-09T09:25:17.811Z,73.85
2024-03-09T09:27:49.842Z,72.72
2024-03-09T09:30:21.077Z,73.23
2024-03-09T09:32:54.297Z,72.63
2024-03-09T09:35:21.742Z,72.27
2024-03-09T09:37:48.299Z,72.44
2024-03-09T09:40:15.089Z,71.27
2024-03-09T09:42:43.334Z,70.98
2024-03-09T09:45:18.701Z,71.81
2024-03-09T09:47:48.975Z,70.09
2024-03-09T09:50:22.359Z,70.90
2024-03-09T09:52:50.690Z,71.07
2024-03-09T09:55:22.571Z,69.82
2024-03-09T09:57:49.555Z,69.42
2024-03-09T10:00:17.542Z,68.67
2024-03-09T10:02:45.294Z,68.12
2024-03-09T10:05:25.439Z,67.30
2024-03-09T10:08:12.288Z,66.68
2024-03-09T10:10:42.672Z,66.21
2024-03-09T10:13:10.300Z,66.31
2024-03-09T10:15:39.197Z,66.62
2024-03-09T10:18:06.887Z,65.63
2024-03-09T10:20:36.344Z,65.92
2024-03-09T10:23:06.480Z,66.16
2024-03-09T10:25:36.730Z,65.30
2024-03-09T10:28:05.222Z,64.08
2024-03-09T10:30:32.188Z,64.75
2024-03-09T10:33:01.884Z,62.76
2024-03-09T10:35:28.567Z,61.44
2024-03-09T10:37:58.855Z,60.76
2024-03-09T10:40:28.215Z,60.24
2024-03-09T10:42:55.515Z,62.07
2024-03-09T10:45:26.279Z,60.55
2024-03-09T10:47:57.953Z,61.00
2024-03-09T10:50:26.545Z,61.89
2024-03-09T10:53:26.478Z,61.52
2024-03-09T10:56:06.011Z,61.93
2024-03-09T10:58:34.251Z,61.65
2024-03-09T11:01:09.199Z,61.30
2024-03-09T11:03:36.899Z,62.07
2024-03-09T11:06:03.619Z,61.57
2024-03-09T11:08:33.758Z,61.68
2024-03-09T11:11:00.383Z,61.86
2024-03-09T11:13:27.071Z,59.28
2024-03-09T11:15:58.416Z,60.16
2024-03-09T11:18:25.109Z,59.72
2024-03-09T11:21:03.850Z,60.55
2024-03-09T11:23:36.482Z,60.37
2024-03-09T11:26:04.645Z,59.86
2024-03-09T11:28:43.693Z,60.22
2024-03-09T11:31:13.342Z,59.76
2024-03-09T11:33:53.304Z,61.53
2024-03-09T11:36:42.791Z,62.12
2024-03-09T11:39:23.966Z,60.99
2024-03-09T11:41:51.947Z,61.10
2024-03-09T11:44:24.413Z,62.70
2024-03-09T11:46:53.641Z,61.75
2024-03-09T11:49:20.153Z,61.96
2024-03-09T11:51:49.551Z,62.98
2024-03-09T11:54:22.990Z,62.66
2024-03-09T11:56:53.145Z,62.44
2024-03-09T11:59:20.935Z,62.96
2024-03-09T12:01:53.406Z,63.79
2024-03-09T12:04:22.271Z,63.16
2024-03-09T12:06:49.220Z,63.00
2024-03-09T12:09:29.011Z,62.53
2024-03-09T12:12:13.292Z,62.86
2024-03-09T12:14:57.512Z,61.96
2024-03-09T12:17:35.732Z,62.17
2024-03-09T12:20:16.353Z,62.12
2024-03-09T12:22:53.779Z,61.68
2024-03-09T12:25:20.393Z,62.09
2024-03-09T12:27:51.320Z,61.31
2024-03-09T12:30:17.827Z,60.71
2024-03-09T12:32:44.350Z,61.03
2024-03-09T12:35:17.080Z,62.85
2024-03-09T12:37:50.353Z,61.83
2024-03-09T12:40:19.732Z,60.44
2024-03-09T12:42:55.128Z,60.34
2024-03-09T12:45:26.163Z,60.44
2024-03-09T12:47:56.220Z,60.21
2024-03-09T12:50:24.781Z,60.76
2024-03-09T12:52:52.925Z,60.22
2024-03-09T12:55:29.466Z,60.52
2024-03-09T12:58:00.988Z,60.20
2024-03-09T13:00:32.732Z,60.68
2024-03-09T13:03:09.667Z,59.15
2024-03-09T13:05:36.369Z,59.76
2024-03-09T13:08:11.300Z,58.80
2024-03-09T13:10:38.652Z,57.85
2024-03-09T13:13:15.237Z,56.81
2024-03-09T13:15:50.583Z,55.79
2024-03-09T13:18:24.169Z,55.02
2024-03-09T13:20:54.858Z,55.15
2024-03-09T13:23:21.674Z,53.84
2024-03-09T13:25:49.552Z,54.03
2024-03-09T13:28:18.451Z,53.86
2024-03-09T13:30:47.685Z,54.33
2024-03-09T13:33:16.995Z,53.26
2024-03-09T13:35:45.410Z,53.74
2024-03-09T13:38:12.109Z,52.94
2024-03-09T13:40:38.601Z,54.37
2024-03-09T13:43:07.360Z,53.73
2024-03-09T13:45:36.735Z,55.77
2024-03-09T13:48:13.984Z,55.48
2024-03-09T13:50:40.458Z,55.84
2024-03-09T13:53:09.537Z,55.48
2024-03-09T13:55:36.433Z,56.25
2024-03-09T13:58:03.906Z,55.33
2024-03-09T14:00:30.891Z,56.58
2024-03-09T14:02:58.306Z,54.01
2024-03-09T14:05:28.121Z,51.83
2024-03-09T14:08:00.032Z,50.87
2024-03-09T14:10:32.517Z,51.04
2024-03-09T14:13:12.307Z,52.49
2024-03-09T14:15:42.651Z,51.62
2024-03-09T14:18:16.659Z,49.95
2024-03-09T14:20:43.313Z,51.96
2024-03-09T14:23:18.059Z,53.27
2024-03-09T14:25:44.680Z,54.56
2024-03-09T14:28:13.845Z,54.22
2024-03-09T14:30:43.125Z,54.00
2024-03-09T14:33:16.727Z,54.16
2024-03-09T14:35:43.236Z,54.74
2024-03-09T14:38:11.225Z,54.78
2024-03-09T14:40:41.580Z,54.16
2024-03-09T14:43:11.192Z,52.77
2024-03-09T14:45:38.066Z,53.39
2024-03-09T14:48:10.505Z,53.99
2024-03-09T14:50:39.559Z,54.28
2024-03-09T14:53:14.213Z,54.56
2024-03-09T14:55:47.267Z,53.94
2024-03-09T14:58:14.107Z,54.02
2024-03-09T15:00:44.072Z,54.39
2024-03-09T15:03:33.832Z,54.67
2024-03-09T15:06:01.167Z,55.28
2024-03-09T15:08:28.125Z,54.89
2024-03-09T15:10:59.492Z,55.23
2024-03-09T15:13:49.234Z,55.74
2024-03-09T15:16:25.664Z,56.16
2024-03-09T15:18:54.805Z,55.98
2024-03-09T15:21:23.427Z,54.62
2024-03-09T15:23:52.583Z,55.45
2024-03-09T15:26:21.153Z,56.37
2024-03-09T15:28:50.969Z,56.71
2024-03-09T15:31:17.921Z,56.40
2024-03-09T15:33:44.604Z,54.81
2024-03-09T15:36:29.652Z,52.77
2024-03-09T15:39:13.478Z,53.75
2024-03-09T15:41:49.700Z,55.24
2024-03-09T15:44:28.103Z,56.20
2024-03-09T15:46:58.649Z,57.93
2024-03-09T15:49:28.786Z,57.40
2024-03-09T15:52:00.612Z,57.42
2024-03-09T15:54:27.098Z,57.94
2024-03-09T15:56:53.508Z,57.92
2024-03-09T15:59:21.459Z,57.44
2024-03-09T16:01:49.248Z,56.74
2024-03-09T16:04:16.996Z,57.75
2024-03-09T16:06:45.189Z,58.33
2024-03-09T16:09:15.202Z,59.02
2024-03-09T16:11:42.644Z,58.45
2024-03-09T16:14:13.421Z,59.32
2024-03-09T16:16:40.589Z,60.03
2024-03-09T16:19:07.192Z,59.66
2024-03-09T16:21:40.147Z,59.40
2024-03-09T16:24:08.699Z,59.19
2024-03-09T16:26:35.758Z,60.46
2024-03-09T16:29:03.420Z,59.69
2024-03-09T16:31:37.177Z,59.56
2024-03-09T16:34:07.265Z,60.25
2024-03-09T16:36:34.512Z,60.35
2024-03-09T16:39:04.953Z,59.87
2024-03-09T16:41:34.149Z,60.03
2024-03-09T16:44:00.827Z,60.81
2024-03-09T16:46:27.790Z,60.38
2024-03-09T16:48:54.489Z,60.33
2024-03-09T16:51:23.162Z,61.35
2024-03-09T16:53:54.349Z,60.68
2024-03-09T16:56:20.857Z,61.53
2024-03-09T16:58:47.409Z,60.45
2024-03-09T17:01:13.993Z,61.38
2024-03-09T17:03:41.023Z,60.51
2024-03-09T17:06:10.572Z,60.51
2024-03-09T17:08:37.648Z,61.86
2024-03-09T17:11:10.025Z,61.56
2024-03-09T17:13:37.219Z,61.76
2024-03-09T17:16:03.931Z,61.64
2024-03-09T17:18:30.415Z,61.99
2024-03-09T17:20:56.899Z,62.55
2024-03-09T17:23:26.816Z,61.64
2024-03-09T17:25:53.338Z,62.36
2024-03-09T17:28:21.446Z,62.95
2024-03-09T17:30:49.733Z,62.06
2024-03-09T17:33:24.063Z,62.95
2024-03-09T17:35:54.072Z,63.44
2024-03-09T17:38:22.198Z,62.82
2024-03-09T17:40:49.361Z,63.69
2024-03-09T17:43:16.567Z,63.33
2024-03-09T17:45:42.960Z,63.57
2024-03-09T17:48:09.501Z,62.87
2024-03-09T17:50:37.188Z,63.76
2024-03-09T17:53:06.721Z,63.53
2024-03-09T17:55:33.981Z,64.29
2024-03-09T17:58:08.577Z,64.80
2024-03-09T18:00:36.380Z,63.33
2024-03-09T18:03:03.602Z,63.62
2024-03-09T18:05:37.876Z,64.18
2024-03-09T18:08:12.858Z,64.34
2024-03-09T18:10:43.742Z,63.97
2024-03-09T18:13:15.202Z,64.09
2024-03-09T18:15:46.416Z,65.04
2024-03-09T18:18:14.039Z,65.58
2024-03-09T18:20:47.830Z,65.26
2024-03-09T18:23:15.757Z,64.81
2024-03-09T18:25:49.541Z,65.21
2024-03-09T18:28:17.579Z,65.08
2024-03-09T18:30:46.057Z,65.38
2024-03-09T18:33:14.686Z,65.66
2024-03-09T18:35:46.578Z,66.08
2024-03-09T18:38:15.009Z,64.57
2024-03-09T18:40:42.130Z,66.11
2024-03-09T18:43:09.976Z,66.08
2024-03-09T18:45:38.895Z,66.98
2024-03-09T18:48:05.932Z,66.10
2024-03-09T18:50:32.449Z,66.51
2024-03-09T18:52:59.653Z,67.48
2024-03-09T18:55:27.259Z,68.28
2024-03-09T18:57:54.757Z,68.03
2024-03-09T19:00:30.093Z,68.88
2024-03-09T19:02:56.751Z,67.73
2024-03-09T19:05:25.408Z,68.67
2024-03-09T19:07:55.986Z,69.64
2024-03-09T19:10:23.804Z,69.70
2024-03-09T19:12:50.597Z,70.33
2024-03-09T19:15:17.208Z,69.58
2024-03-09T19:17:46.749Z,70.90
2024-03-09T19:20:20.053Z,71.53
2024-03-09T19:22:48.065Z,71.28
2024-03-09T19:25:14.542Z,71.74
2024-03-09T19:27:41.868Z,72.60
2024-03-09T19:30:19.252Z,72.10
2024-03-09T19:32:47.374Z,71.79
2024-03-09T19:35:22.219Z,73.19
2024-03-09T19:37:49.233Z,73.17
2024-03-09T19:40:17.684Z,73.85
2024-03-09T19:42:46.045Z,74.21
2024-03-09T19:45:14.187Z,75.45
2024-03-09T19:47:41.041Z,74.72
2024-03-09T19:50:10.867Z,75.47
2024-03-09T19:52:39.374Z,74.32
2024-03-09T19:55:13.136Z,75.06
2024-03-09T19:57:41.942Z,74.41
2024-03-09T20:00:14.968Z,74.00
2024-03-09T20:02:44.182Z,74.02
2024-03-09T20:05:13.503Z,74.73
2024-03-09T20:07:42.563Z,76.26
2024-03-09T20:10:20.926Z,74.79
2024-03-09T20:12:51.342Z,75.01
2024-03-09T20:15:20.431Z,75.97
2024-03-09T20:17:55.350Z,76.28
2024-03-09T20:20:24.061Z,75.83
2024-03-09T20:22:55.542Z,76.61
2024-03-09T20:25:25.009Z,75.75
2024-03-09T20:27:52.047Z,75.23
2024-03-09T20:30:20.509Z,75.55
2024-03-09T20:32:47.983Z,76.38
2024-03-09T20:35:16.629Z,77.48
2024-03-09T20:37:45.818Z,77.04
2024-03-09T20:40:21.643Z,77.37
2024-03-09T20:42:49.644Z,77.85
2024-03-09T20:45:19.920Z,77.78
2024-03-09T20:47:46.909Z,77.87
2024-03-09T20:50:19.433Z,77.39
2024-03-09T20:52:54.515Z,76.79
2024-03-09T20:55:21.522Z,78.05
2024-03-09T20:57:48.540Z,77.81
2024-03-09T21:00:18.974Z,78.10
2024-03-09T21:02:46.358Z,77.84
2024-03-09T21:05:15.522Z,78.00
2024-03-09T21:07:44.460Z,78.37
2024-03-09T21:10:11.181Z,78.44
2024-03-09T21:12:38.311Z,78.64
2024-03-09T21:15:07.809Z,77.44
2024-03-09T21:17:37.597Z,77.71
2024-03-09T21:20:15.306Z,78.54
2024-03-09T21:22:42.584Z,78.69
2024-03-09T21:25:12.953Z,78.59
2024-03-09T21:27:42.816Z,79.01
2024-03-09T21:30:15.258Z,77.92
2024-03-09T21:32:44.158Z,78.64
2024-03-09T21:35:16.291Z,78.56
2024-03-09T21:37:45.199Z,80.06
2024-03-09T21:40:17.620Z,78.32
2024-03-09T21:42:45.425Z,80.24
2024-03-09T21:45:15.441Z,79.98
2024-03-09T21:47:44.425Z,80.02
2024-03-09T21:50:20.472Z,80.46
2024-03-09T21:52:49.812Z,79.84
2024-03-09T21:55:19.815Z,80.08
2024-03-09T21:57:48.761Z,79.32
2024-03-09T22:00:21.651Z,80.99
2024-03-09T22:02:53.344Z,80.27
2024-03-09T22:05:23.212Z,80.91
2024-03-09T22:07:49.870Z,80.12
2024-03-09T22:10:20.069Z,81.01
2024-03-09T22:12:47.122Z,81.26
2024-03-09T22:15:16.170Z,80.87
2024-03-09T22:17:43.327Z,80.28
2024-03-09T22:20:14.701Z,80.53
2024-03-09T22:22:45.814Z,80.72
2024-03-09T22:25:14.666Z,80.61
2024-03-09T22:27:41.990Z,81.16
2024-03-09T22:30:09.683Z,81.88
2024-03-09T22:32:40.652Z,82.21
2024-03-09T22:35:14.411Z,81.83
2024-03-09T22:37:45.349Z,81.98
2024-03-09T22:40:14.220Z,81.90
2024-03-09T22:42:42.128Z,82.50
2024-03-09T22:45:12.485Z,82.34
2024-03-09T22:47:44.667Z,82.03
2024-03-09T22:50:17.841Z,83.03
2024-03-09T22:52:44.610Z,82.93
2024-03-09T22:55:12.109Z,83.13
2024-03-09T22:57:38.582Z,82.55
2024-03-09T23:00:07.428Z,82.33
2024-03-09T23:02:34.893Z,83.60
2024-03-09T23:05:01.793Z,82.78
2024-03-09T23:07:29.443Z,83.71
2024-03-09T23:09:57.795Z,83.65
2024-03-09T23:12:26.640Z,83.34
2024-03-09T23:14:55.348Z,82.97
2024-03-09T23:17:21.821Z,84.01
2024-03-09T23:19:49.392Z,83.85
2024-03-09T23:22:15.832Z,83.68
2024-03-09T23:24:42.653Z,83.16
2024-03-09T23:27:09.075Z,83.71
2024-03-09T23:29:35.673Z,83.03
2024-03-09T23:32:02.202Z,84.00
2024-03-09T23:34:31.720Z,84.42
2024-03-09T23:36:58.669Z,84.54
2024-03-09T23:39:25.281Z,83.90
2024-03-09T23:41:51.700Z,84.84
2024-03-09T23:44:20.325Z,85.00
2024-03-09T23:46:49.452Z,85.00
2024-03-09T23:49:16.715Z,83.98
2024-03-09T23:51:43.173Z,84.07
2024-03-09T23:54:10.599Z,84.28
2024-03-09T23:56:39.666Z,84.33
2024-03-09T23:59:07.723Z,85.63
